Time;durP1;ratioP1;P1;durP2;ratioP2;P2;SDS_P1;SDS_P2;PMS_P1;PMS_P2;Temp;Humidity;BMP_temperature;BMP_pressure;BME280_temperature;BME280_humidity;BME280_pressure;Samples;Min_cycle;Max_cycle;Signal;HPM_P1;HPM_P2
2022/11/07 00:03:03;;;;;;;28.00;13.80;;;;;;;8.48;97.98;98670.80;214405;1309;25462;-76
2022/11/07 00:08:05;;;;;;;27.00;12.90;;;;;;;8.49;97.88;98667.43;214147;1310;22538;-75
2022/11/07 00:13:13;;;;;;;26.90;12.90;;;;;;;8.51;97.83;98659.09;214314;1305;22670;-75
2022/11/07 00:18:15;;;;;;;28.40;13.60;;;;;;;8.53;97.78;98653.04;214376;1309;22523;-74
2022/11/07 00:23:17;;;;;;;31.20;13.40;;;;;;;8.55;97.81;98653.67;214530;1309;22559;-75
2022/11/07 00:28:19;;;;;;;33.90;13.40;;;;;;;8.56;97.66;98651.42;214378;1305;22470;-75
2022/11/07 00:33:21;;;;;;;31.70;14.30;;;;;;;8.56;97.59;98647.41;214523;1310;24448;-75
2022/11/07 00:38:22;;;;;;;38.00;19.60;;;;;;;8.57;97.50;98641.20;214215;1310;22590;-76
2022/11/07 00:43:25;;;;;;;35.30;16.70;;;;;;;8.56;97.34;98638.39;214224;1304;22596;-76
2022/11/07 00:48:27;;;;;;;33.80;15.30;;;;;;;8.54;97.17;98639.27;214386;1309;22501;-75
2022/11/07 00:53:29;;;;;;;30.20;14.80;;;;;;;8.50;97.05;98630.90;214314;1305;22490;-75
2022/11/07 00:58:31;;;;;;;31.10;15.40;;;;;;;8.50;97.15;98631.27;214458;1309;22562;-74
2022/11/07 01:08:55;;;;;;;29.40;13.50;;;;;;;8.54;97.43;98632.32;214249;1309;22503;-75
2022/11/07 01:13:59;;;;;;;29.80;15.20;;;;;;;8.52;97.11;98631.64;214265;1304;24321;-74
2022/11/07 01:19:02;;;;;;;23.10;12.60;;;;;;;8.53;97.54;98628.43;214362;1310;25378;-75
2022/11/07 01:24:07;;;;;;;29.00;14.60;;;;;;;8.54;97.41;98628.58;214169;1303;24317;-75
2022/11/07 01:29:09;;;;;;;21.90;12.00;;;;;;;8.53;97.24;98631.48;214395;1310;25288;-75
2022/11/07 01:34:12;;;;;;;20.60;10.90;;;;;;;8.53;97.27;98628.54;214348;1310;25302;-76
2022/11/07 01:39:14;;;;;;;22.70;12.20;;;;;;;8.54;97.23;98629.86;214299;1310;22686;-75
2022/11/07 01:44:16;;;;;;;21.20;12.20;;;;;;;8.50;97.25;98625.68;214474;1309;22465;-75
2022/11/07 01:49:33;;;;;;;25.00;12.50;;;;;;;8.52;97.41;98619.73;214363;1310;22470;-75
2022/11/07 01:54:43;;;;;;;20.90;11.70;;;;;;;8.53;97.39;98610.48;214295;1310;22467;-75
2022/11/07 01:59:46;;;;;;;22.60;11.80;;;;;;;8.54;97.33;98598.78;214321;1309;25275;-76
2022/11/07 02:04:48;;;;;;;24.50;13.00;;;;;;;8.55;97.51;98590.08;214396;1309;22521;-76
2022/11/07 02:09:52;;;;;;;20.00;11.30;;;;;;;8.57;97.31;98584.98;214380;1310;157229;-74
2022/11/07 02:14:55;;;;;;;23.30;12.70;;;;;;;8.57;97.26;98586.79;214268;1309;22574;-75
2022/11/07 02:19:57;;;;;;;22.10;12.20;;;;;;;8.57;97.29;98597.42;214315;1309;25375;-75
2022/11/07 02:25:07;;;;;;;19.20;10.70;;;;;;;8.57;97.17;98597.05;214200;1309;22465;-77
2022/11/07 02:30:19;;;;;;;22.80;11.70;;;;;;;8.52;96.96;98593.58;214435;1309;22469;-75
2022/11/07 02:35:36;;;;;;;24.20;12.70;;;;;;;8.50;97.14;98589.85;214490;1310;25263;-77
2022/11/07 02:40:39;;;;;;;23.80;12.10;;;;;;;8.54;97.40;98582.88;214173;1309;22615;-74
2022/11/07 02:45:44;;;;;;;25.20;12.00;;;;;;;8.55;97.28;98574.74;214433;1310;22527;-75
2022/11/07 02:50:46;;;;;;;19.20;10.90;;;;;;;8.54;97.15;98558.20;214155;1310;24082;-76
2022/11/07 02:55:47;;;;;;;20.40;12.10;;;;;;;8.51;97.04;98564.63;214249;1310;25292;-75
2022/11/07 03:00:49;;;;;;;28.90;15.40;;;;;;;8.51;97.06;98556.20;214206;1310;22585;-76
2022/11/07 03:05:51;;;;;;;29.60;15.40;;;;;;;8.48;96.97;98554.66;214409;1310;25178;-75
2022/11/07 03:10:53;;;;;;;28.40;15.50;;;;;;;8.45;96.96;98549.41;214452;1310;22490;-76
2022/11/07 03:15:55;;;;;;;31.50;14.90;;;;;;;8.43;97.04;98554.05;214391;1310;23777;-75
2022/11/07 03:20:57;;;;;;;28.90;15.70;;;;;;;8.36;96.95;98556.13;214402;1310;24311;-76
2022/11/07 03:25:59;;;;;;;29.10;15.20;;;;;;;8.27;96.98;98556.35;214375;1310;25443;-75
2022/11/07 03:31:03;;;;;;;32.50;16.00;;;;;;;8.15;97.13;98556.80;214485;1308;22472;-75
2022/11/07 03:36:05;;;;;;;31.40;15.70;;;;;;;8.04;97.29;98554.27;214398;1310;22519;-77
2022/11/07 03:41:07;;;;;;;32.90;16.20;;;;;;;7.94;97.51;98550.49;214370;1309;23494;-75
2022/11/07 03:46:09;;;;;;;33.80;16.40;;;;;;;7.84;97.66;98550.60;214282;1305;22483;-75
2022/11/07 03:51:11;;;;;;;35.50;16.70;;;;;;;7.75;97.73;98547.61;214438;1310;22492;-76
2022/11/07 03:56:13;;;;;;;36.40;16.40;;;;;;;7.68;97.94;98540.81;214157;1310;22464;-76
2022/11/07 04:01:15;;;;;;;30.60;15.30;;;;;;;7.60;98.08;98547.04;214220;1310;22459;-75
2022/11/07 04:06:17;;;;;;;32.00;14.80;;;;;;;7.51;98.11;98546.49;214253;1308;22470;-75
2022/11/07 04:22:02;;;;;;;28.00;14.70;;;;;;;7.30;98.42;98550.78;214374;1310;22516;-75
2022/11/07 04:32:25;;;;;;;26.60;14.10;;;;;;;7.17;98.51;98550.56;214523;1310;25135;-75
2022/11/07 04:37:27;;;;;;;26.60;14.10;;;;;;;7.12;98.59;98556.81;214349;1307;22475;-75
2022/11/07 04:42:29;;;;;;;31.60;14.20;;;;;;;7.08;98.78;98565.45;214410;1310;25389;-76
2022/11/07 04:47:31;;;;;;;34.40;16.20;;;;;;;7.03;98.81;98569.55;214327;1308;25324;-76
2022/11/07 04:52:40;;;;;;;29.10;14.90;;;;;;;7.00;98.72;98568.82;214347;1310;22523;-75
2022/11/07 04:57:42;;;;;;;24.80;13.60;;;;;;;6.98;98.96;98577.25;214385;1310;22614;-75
2022/11/07 05:02:45;;;;;;;29.00;14.50;;;;;;;6.94;98.98;98573.74;214431;1310;25308;-75
2022/11/07 05:07:47;;;;;;;34.30;16.80;;;;;;;6.87;98.97;98577.90;214304;1310;26160;-75
2022/11/07 05:12:49;;;;;;;23.20;13.70;;;;;;;6.85;99.17;98579.13;214443;1310;25323;-75
2022/11/07 05:17:51;;;;;;;27.40;14.80;;;;;;;6.82;99.33;98581.80;214373;1310;22469;-75
2022/11/07 05:28:21;;;;;;;27.50;14.20;;;;;;;6.78;99.86;98579.56;214165;1310;22479;-76
2022/11/07 05:33:34;;;;;;;27.10;13.60;;;;;;;6.81;100.00;98581.21;214313;1310;24278;-75
2022/11/07 05:38:39;;;;;;;20.60;11.60;;;;;;;6.87;100.00;98581.95;214406;1310;22619;-76
2022/11/07 05:43:41;;;;;;;20.50;9.40;;;;;;;7.01;100.00;98583.64;214608;1307;25811;-75
2022/11/07 05:48:43;;;;;;;17.70;9.80;;;;;;;7.16;100.00;98585.21;214246;1308;22498;-75
2022/11/07 05:53:45;;;;;;;18.20;8.50;;;;;;;7.28;100.00;98593.10;214303;1310;22478;-75
2022/11/07 05:58:46;;;;;;;15.90;7.30;;;;;;;7.37;100.00;98599.27;214318;1310;24272;-76
2022/11/07 06:03:48;;;;;;;19.20;8.20;;;;;;;7.44;100.00;98611.55;214261;1309;25267;-75
2022/11/07 06:08:50;;;;;;;14.00;7.70;;;;;;;7.53;100.00;98608.86;214407;1309;25355;-75
2022/11/07 06:13:53;;;;;;;16.90;7.90;;;;;;;7.61;100.00;98607.88;214237;1310;22459;-75
2022/11/07 06:18:55;;;;;;;16.30;8.00;;;;;;;7.67;100.00;98610.04;214332;1310;22603;-75
2022/11/07 06:23:58;;;;;;;14.00;6.50;;;;;;;7.73;100.00;98608.52;214281;1310;23355;-75
2022/11/07 06:29:00;;;;;;;12.90;7.00;;;;;;;7.79;100.00;98606.30;214410;1310;22471;-75
2022/11/07 06:34:02;;;;;;;13.60;7.00;;;;;;;7.88;99.69;98609.89;214215;1310;22612;-75
2022/11/07 06:39:03;;;;;;;11.40;6.00;;;;;;;7.96;99.17;98615.83;214391;1283;24442;-74
2022/11/07 06:44:08;;;;;;;10.10;5.20;;;;;;;8.02;98.29;98626.03;214532;1291;24285;-73
2022/11/07 06:49:10;;;;;;;9.50;5.30;;;;;;;8.10;97.07;98625.67;214292;1296;22496;-73
2022/11/07 06:54:12;;;;;;;12.10;5.30;;;;;;;8.14;96.95;98627.20;214413;1292;24247;-73
2022/11/07 06:59:14;;;;;;;9.20;4.60;;;;;;;8.19;96.45;98635.29;214630;1283;22495;-73
2022/11/07 07:04:24;;;;;;;8.50;4.40;;;;;;;8.25;95.62;98642.56;214515;1284;22607;-71
2022/11/07 07:09:32;;;;;;;7.50;4.30;;;;;;;8.31;94.90;98649.89;215045;1283;145495;-73
2022/11/07 07:14:33;;;;;;;9.70;4.10;;;;;;;8.36;94.46;98657.18;215279;1283;22499;-75
2022/11/07 07:19:36;;;;;;;8.20;4.00;;;;;;;8.41;93.88;98653.14;214398;1284;138019;-76
2022/11/07 07:24:39;;;;;;;6.00;3.80;;;;;;;8.46;92.91;98650.80;214668;1284;138309;-73
2022/11/07 07:29:41;;;;;;;6.60;3.90;;;;;;;8.49;92.64;98653.23;214784;1284;138808;-73
2022/11/07 07:34:42;;;;;;;6.90;4.10;;;;;;;8.53;91.86;98659.61;214809;1280;138372;-73
2022/11/07 07:39:45;;;;;;;10.00;4.40;;;;;;;8.61;91.49;98665.65;214425;1286;138686;-72
2022/11/07 07:44:47;;;;;;;7.30;4.20;;;;;;;8.69;90.94;98673.83;214814;1283;25483;-72
2022/11/07 07:49:51;;;;;;;6.70;3.80;;;;;;;8.76;90.07;98683.86;214773;1284;138279;-72
2022/11/07 07:54:54;;;;;;;5.10;3.30;;;;;;;8.83;90.04;98684.98;214485;1286;138319;-73
2022/11/07 07:59:59;;;;;;;6.70;4.00;;;;;;;8.87;89.10;98680.73;214525;1283;138412;-74
2022/11/07 08:05:04;;;;;;;8.10;4.30;;;;;;;8.93;88.44;98693.42;214438;1287;138999;-73
2022/11/07 08:10:08;;;;;;;8.10;3.30;;;;;;;8.94;87.68;98696.61;214979;1280;138853;-72
2022/11/07 08:15:32;;;;;;;6.50;3.90;;;;;;;8.97;87.61;98697.39;215122;1283;138908;-72
2022/11/07 08:20:34;;;;;;;5.80;4.00;;;;;;;9.03;87.23;98701.23;214698;1286;23394;-72
2022/11/07 08:25:37;;;;;;;7.30;3.50;;;;;;;9.15;86.84;98707.34;214819;1285;138555;-73
2022/11/07 08:31:02;;;;;;;5.20;3.30;;;;;;;9.30;86.25;98713.14;214815;1286;138509;-73
2022/11/07 08:36:06;;;;;;;5.30;4.00;;;;;;;9.41;85.30;98721.06;215082;1280;138447;-74
2022/11/07 08:41:08;;;;;;;6.70;3.30;;;;;;;9.50;84.96;98720.50;214780;1280;138525;-74
2022/11/07 08:46:10;;;;;;;6.80;3.60;;;;;;;9.60;83.94;98723.72;214517;1283;138405;-73
2022/11/07 08:51:12;;;;;;;6.80;3.50;;;;;;;9.67;84.29;98727.82;214694;1284;138467;-73
2022/11/07 08:56:16;;;;;;;6.00;3.50;;;;;;;9.76;83.91;98735.65;214835;1283;25885;-74
2022/11/07 09:01:18;;;;;;;6.70;3.40;;;;;;;9.82;83.17;98741.17;214508;1287;138181;-74
2022/11/07 09:06:20;;;;;;;6.30;3.30;;;;;;;9.84;82.88;98747.88;214620;1289;138325;-73
2022/11/07 09:11:25;;;;;;;6.00;3.90;;;;;;;9.88;83.20;98749.44;214612;1288;138358;-75
2022/11/07 09:16:27;;;;;;;5.30;3.30;;;;;;;9.96;83.36;98754.38;214715;1283;138524;-74
2022/11/07 09:21:29;;;;;;;8.00;3.90;;;;;;;9.98;82.64;98762.45;214486;1285;138747;-75
2022/11/07 09:26:33;;;;;;;8.50;4.20;;;;;;;9.98;82.45;98760.85;214737;1283;24250;-74
2022/11/07 09:31:35;;;;;;;6.60;3.40;;;;;;;9.96;82.76;98770.60;214411;1287;138103;-75
2022/11/07 09:36:37;;;;;;;9.00;4.30;;;;;;;10.00;82.87;98767.50;214420;1285;138347;-74
2022/11/07 09:42:02;;;;;;;7.80;3.90;;;;;;;9.96;82.57;98759.73;214627;1283;138652;-73
2022/11/07 09:47:18;;;;;;;4.90;3.70;;;;;;;9.94;82.63;98774.36;214410;1280;138382;-72
2022/11/07 09:52:39;;;;;;;11.90;3.50;;;;;;;9.99;82.59;98771.75;214500;1283;138361;-72
2022/11/07 09:57:41;;;;;;;6.30;3.90;;;;;;;10.12;81.65;98773.53;214697;1284;138546;-73
2022/11/07 10:02:55;;;;;;;7.70;3.70;;;;;;;10.14;81.46;98771.95;214708;1286;22541;-72
2022/11/07 10:08:05;;;;;;;6.60;3.80;;;;;;;10.17;82.03;98771.60;214442;1280;138282;-72
2022/11/07 10:13:26;;;;;;;6.10;3.90;;;;;;;10.20;81.98;98770.27;215039;1281;138491;-73
2022/11/07 10:18:37;;;;;;;7.60;3.80;;;;;;;10.30;82.12;98768.83;214674;1284;138764;-73
2022/11/07 10:23:42;;;;;;;7.00;4.00;;;;;;;10.43;82.24;98763.51;214604;1294;138536;-72
2022/11/07 10:28:47;;;;;;;7.10;4.10;;;;;;;10.59;81.50;98765.38;214622;1282;138541;-72
2022/11/07 10:34:03;;;;;;;5.30;3.90;;;;;;;10.75;81.79;98765.80;214324;1286;138553;-75
2022/11/07 10:39:15;;;;;;;6.00;3.50;;;;;;;10.77;79.51;98756.30;214438;1287;138557;-73
2022/11/07 10:44:23;;;;;;;6.60;3.40;;;;;;;10.80;80.32;98759.21;214897;1286;22903;-74
2022/11/07 10:49:30;;;;;;;7.00;3.90;;;;;;;10.90;80.64;98765.59;214416;1310;138401;-75
2022/11/07 10:54:32;;;;;;;7.60;4.20;;;;;;;11.04;81.03;98761.91;214538;1309;138696;-75
2022/11/07 10:59:38;;;;;;;7.30;4.10;;;;;;;11.12;79.70;98768.64;214389;1294;138473;-75
2022/11/07 11:04:48;;;;;;;7.00;4.50;;;;;;;11.22;80.41;98772.52;214596;1309;139048;-74
2022/11/07 11:09:54;;;;;;;6.80;3.90;;;;;;;11.32;79.28;98772.68;214372;1309;138580;-75
2022/11/07 11:15:02;;;;;;;7.60;5.00;;;;;;;11.41;79.83;98752.41;215256;1302;25418;-75
2022/11/07 11:20:08;;;;;;;6.90;4.00;;;;;;;11.59;79.57;98758.94;214422;1287;138065;-76
2022/11/07 11:25:10;;;;;;;8.70;4.30;;;;;;;11.66;78.31;98751.20;214705;1309;138502;-77
2022/11/07 11:30:21;;;;;;;7.80;4.50;;;;;;;11.72;78.62;98764.44;214815;1309;138528;-76
2022/11/07 11:35:42;;;;;;;8.70;4.10;;;;;;;11.79;78.20;98770.91;214771;1309;138681;-76
2022/11/07 11:40:52;;;;;;;5.80;3.80;;;;;;;11.78;77.97;98776.30;214756;1303;138619;-76
2022/11/07 11:46:13;;;;;;;6.20;4.10;;;;;;;11.85;78.42;98775.75;214610;1302;138785;-76
2022/11/07 11:51:37;;;;;;;5.60;3.70;;;;;;;11.97;78.81;98776.25;214656;1291;139019;-75
2022/11/07 11:56:42;;;;;;;5.10;3.40;;;;;;;12.00;77.80;98772.34;214656;1287;23346;-77
2022/11/07 12:01:54;;;;;;;8.70;5.30;;;;;;;12.05;77.75;98767.34;214411;1309;138178;-76
2022/11/07 12:07:24;;;;;;;6.40;4.10;;;;;;;12.11;77.52;98757.20;214613;1297;138814;-76
2022/11/07 12:12:45;;;;;;;;;;;;;;;12.11;76.94;98766.91;214984;1309;138650;-76
2022/11/07 12:18:05;;;;;;;8.20;4.70;;;;;;;12.04;76.97;98768.12;214937;1285;125989;-75
2022/11/07 12:23:38;;;;;;;7.10;3.50;;;;;;;12.06;78.01;98765.90;214740;1277;138650;-74
2022/11/07 12:29:02;;;;;;;7.10;3.50;;;;;;;12.13;78.05;98741.63;214542;1285;138657;-74
2022/11/07 12:34:34;;;;;;;5.70;2.90;;;;;;;12.21;77.31;98749.96;214626;1277;138614;-74
2022/11/07 12:40:00;;;;;;;5.30;3.60;;;;;;;12.26;76.85;98755.04;214517;1285;138627;-74
2022/11/07 12:45:01;;;;;;;8.30;3.60;;;;;;;12.26;76.41;98754.50;214684;1278;22498;-74
2022/11/07 12:50:21;;;;;;;4.90;3.50;;;;;;;12.25;77.07;98751.51;214427;1280;139669;-85
2022/11/07 12:55:31;;;;;;;6.30;3.90;;;;;;;12.27;77.50;98754.86;214441;1283;138393;-72
2022/11/07 13:00:34;;;;;;;8.50;3.80;;;;;;;12.15;77.26;98758.63;214567;1287;138373;-72
2022/11/07 13:06:01;;;;;;;7.40;4.10;;;;;;;12.07;76.97;98772.27;214711;1277;138562;-72
2022/11/07 13:11:22;;;;;;;6.30;3.80;;;;;;;12.04;77.21;98778.66;214970;1309;139028;-73
2022/11/07 13:16:29;;;;;;;5.10;3.30;;;;;;;12.10;77.76;98768.83;215099;1286;138638;-72
2022/11/07 13:21:41;;;;;;;5.70;3.90;;;;;;;12.27;77.32;98761.62;214376;1287;139681;-72
2022/11/07 13:26:43;;;;;;;6.40;4.00;;;;;;;12.38;77.26;98766.50;214466;1280;24296;-73
2022/11/07 13:32:13;;;;;;;6.60;4.00;;;;;;;12.39;76.79;98774.10;214498;1282;139012;-72
2022/11/07 13:37:19;;;;;;;11.20;4.80;;;;;;;12.38;76.87;98777.95;214421;1281;139546;-72
2022/11/07 13:42:24;;;;;;;8.80;4.70;;;;;;;12.31;76.73;98776.61;214636;1288;139271;-75
2022/11/07 13:47:39;;;;;;;6.50;4.40;;;;;;;12.24;77.04;98770.54;214505;1280;139239;-72
2022/11/07 13:53:03;;;;;;;5.70;4.00;;;;;;;12.20;77.18;98777.02;214587;1283;139081;-72
2022/11/07 13:58:13;;;;;;;6.30;3.60;;;;;;;12.09;76.96;98782.10;214675;1279;139081;-72
2022/11/07 14:03:28;;;;;;;9.30;3.90;;;;;;;12.02;77.15;98789.92;214436;1288;139013;-73
2022/11/07 14:08:34;;;;;;;5.60;3.00;;;;;;;11.93;77.33;98793.88;214533;1286;25535;-74
2022/11/07 14:13:37;;;;;;;5.80;3.40;;;;;;;11.79;77.36;98790.78;214961;1281;148719;-74
2022/11/07 14:18:48;;;;;;;7.60;3.60;;;;;;;11.66;77.41;98788.86;214438;1281;138979;-74
2022/11/07 14:23:53;;;;;;;6.60;4.30;;;;;;;11.52;77.67;98794.95;214229;1284;139321;-73
2022/11/07 14:28:56;;;;;;;5.40;3.30;;;;;;;11.40;77.97;98800.34;214394;1288;138491;-74
2022/11/07 14:34:20;;;;;;;4.10;2.90;;;;;;;11.33;78.45;98806.67;214465;1281;138642;-73
2022/11/07 14:39:30;;;;;;;3.30;2.20;;;;;;;11.27;78.56;98804.94;214457;1281;138689;-73
2022/11/07 14:44:39;;;;;;;4.20;2.30;;;;;;;11.19;78.44;98805.98;214435;1285;22579;-72
2022/11/07 14:49:56;;;;;;;4.10;3.00;;;;;;;11.04;78.53;98809.25;214706;1281;138267;-73
2022/11/07 14:55:29;;;;;;;5.10;3.40;;;;;;;10.91;78.94;98814.58;214399;1281;138408;-73
2022/11/07 15:00:34;;;;;;;6.70;3.50;;;;;;;10.76;79.40;98812.36;214481;1288;138685;-73
2022/11/07 15:05:35;;;;;;;6.20;2.70;;;;;;;10.60;79.52;98804.70;214193;1281;138677;-74
2022/11/07 15:10:38;;;;;;;7.60;3.40;;;;;;;10.40;79.81;98804.45;214452;1309;25329;-74
2022/11/07 15:15:40;;;;;;;8.90;2.90;;;;;;;10.22;80.34;98809.40;214536;1294;22608;-74
2022/11/07 15:20:42;;;;;;;3.90;2.50;;;;;;;10.05;80.76;98813.42;214409;1309;23261;-73
2022/11/07 15:25:58;;;;;;;5.60;3.60;;;;;;;9.88;81.20;98815.26;214472;1309;22489;-74
2022/11/07 15:31:00;;;;;;;10.00;5.20;;;;;;;9.76;81.75;98817.67;214501;1310;24716;-73
2022/11/07 15:36:02;;;;;;;5.20;3.90;;;;;;;9.64;82.12;98814.89;214479;1295;23885;-74
2022/11/07 15:41:04;;;;;;;8.30;3.40;;;;;;;9.50;82.48;98818.27;214368;1288;24363;-73
2022/11/07 15:46:29;;;;;;;11.40;3.80;;;;;;;9.36;82.94;98818.52;214295;1309;22758;-73
2022/11/07 15:51:31;;;;;;;8.30;4.10;;;;;;;9.25;83.42;98819.48;214427;1310;24359;-72
2022/11/07 15:56:33;;;;;;;12.80;7.00;;;;;;;9.12;84.04;98824.46;214590;1301;22742;-72
2022/11/07 16:01:35;;;;;;;6.40;3.90;;;;;;;9.03;84.28;98829.39;214559;1309;25271;-73
2022/11/07 16:06:38;;;;;;;7.30;4.50;;;;;;;8.92;84.57;98828.66;214453;1310;23966;-72
2022/11/07 16:11:48;;;;;;;15.40;8.50;;;;;;;8.83;85.20;98824.16;214629;1296;25259;-72
2022/11/07 16:16:51;;;;;;;10.20;4.90;;;;;;;8.80;85.44;98831.33;214570;1285;24475;-72
2022/11/07 16:21:53;;;;;;;9.00;4.90;;;;;;;8.75;85.67;98836.48;214358;1309;22505;-73
2022/11/07 16:26:55;;;;;;;10.30;6.00;;;;;;;8.71;85.87;98834.15;214473;1309;22484;-72
2022/11/07 16:31:57;;;;;;;11.20;6.50;;;;;;;8.63;85.82;98835.41;214626;1278;22594;-72
2022/11/07 16:36:59;;;;;;;11.90;5.70;;;;;;;8.53;86.10;98832.95;214642;1309;25210;-73
2022/11/07 16:42:04;;;;;;;11.00;6.00;;;;;;;8.42;86.11;98834.14;214588;1295;22480;-73
2022/11/07 16:47:12;;;;;;;12.80;6.10;;;;;;;8.32;86.53;98843.02;214193;1299;22949;-72
2022/11/07 16:52:16;;;;;;;11.70;6.20;;;;;;;8.24;86.80;98840.16;214397;1301;24279;-73
2022/11/07 16:57:18;;;;;;;9.80;5.70;;;;;;;8.15;87.08;98844.87;214501;1288;24131;-73
2022/11/07 17:02:23;;;;;;;11.50;5.90;;;;;;;8.06;87.30;98852.85;214451;1298;23252;-76
2022/11/07 17:07:25;;;;;;;12.90;6.80;;;;;;;7.98;87.86;98854.46;214505;1295;22494;-72
2022/11/07 17:12:27;;;;;;;13.40;8.00;;;;;;;7.91;88.23;98854.73;214412;1278;22645;-73
2022/11/07 17:17:29;;;;;;;15.30;8.40;;;;;;;7.84;88.46;98844.82;214507;1293;22562;-72
2022/11/07 17:22:31;;;;;;;15.40;7.40;;;;;;;7.77;88.69;98847.77;214399;1285;25267;-73
2022/11/07 17:27:33;;;;;;;15.10;6.90;;;;;;;7.69;88.84;98844.82;214521;1295;23076;-73
2022/11/07 17:32:35;;;;;;;16.20;8.00;;;;;;;7.61;88.99;98846.69;214327;1280;22467;-72
2022/11/07 17:37:37;;;;;;;13.40;7.90;;;;;;;7.53;89.03;98843.76;214462;1292;22491;-72
2022/11/07 17:42:39;;;;;;;16.60;8.60;;;;;;;7.46;89.24;98846.74;214494;1309;24363;-72
2022/11/07 17:47:43;;;;;;;15.20;8.60;;;;;;;7.39;89.34;98855.53;214366;1307;22571;-73
2022/11/07 17:52:46;;;;;;;15.10;8.20;;;;;;;7.30;89.47;98855.52;214460;1285;24240;-72
2022/11/07 17:57:48;;;;;;;16.70;9.00;;;;;;;7.20;89.49;98857.05;214534;1309;22472;-75
2022/11/07 18:02:51;;;;;;;16.20;8.10;;;;;;;7.11;89.72;98851.54;214392;1300;24876;-73
2022/11/07 18:07:53;;;;;;;13.40;7.80;;;;;;;7.03;90.02;98853.55;214655;1309;26493;-72
2022/11/07 18:12:56;;;;;;;12.40;7.80;;;;;;;6.99;90.40;98861.43;214336;1308;22473;-73
2022/11/07 18:17:58;;;;;;;15.10;9.40;;;;;;;6.95;90.63;98866.37;214421;1310;22804;-74
2022/11/07 18:23:00;;;;;;;19.50;9.70;;;;;;;6.88;90.88;98869.23;214289;1309;22525;-73
2022/11/07 18:28:02;;;;;;;23.20;11.20;;;;;;;6.85;91.27;98874.16;214517;1285;22554;-72
2022/11/07 18:33:04;;;;;;;22.60;9.20;;;;;;;6.82;91.79;98872.14;214286;1298;23711;-73
2022/11/07 18:38:06;;;;;;;21.20;9.60;;;;;;;6.80;91.88;98872.34;214426;1310;25335;-73
2022/11/07 18:43:07;;;;;;;19.60;9.90;;;;;;;6.79;92.40;98864.19;214442;1309;24325;-73
2022/11/07 18:48:12;;;;;;;19.80;10.20;;;;;;;6.80;92.52;98861.89;214396;1309;22499;-73
2022/11/07 18:53:16;;;;;;;17.50;8.80;;;;;;;6.80;92.43;98861.79;214562;1281;22477;-73
2022/11/07 18:58:19;;;;;;;18.10;9.70;;;;;;;6.79;92.62;98863.66;214296;1309;22572;-73
2022/11/07 19:03:21;;;;;;;17.30;9.30;;;;;;;6.77;92.62;98863.64;214328;1309;22467;-73
2022/11/07 19:08:23;;;;;;;16.40;8.70;;;;;;;6.75;92.58;98863.70;214245;1295;22492;-73
2022/11/07 19:13:25;;;;;;;14.70;8.30;;;;;;;6.71;92.65;98858.25;214359;1285;24571;-72
2022/11/07 19:18:27;;;;;;;13.90;8.40;;;;;;;6.66;92.92;98853.75;214418;1304;24390;-73
2022/11/07 19:23:30;;;;;;;16.90;8.60;;;;;;;6.63;92.90;98852.04;214424;1309;24346;-73
2022/11/07 19:28:33;;;;;;;20.40;9.70;;;;;;;6.61;93.09;98859.32;214517;1309;22507;-74
2022/11/07 19:33:35;;;;;;;18.40;10.10;;;;;;;6.60;93.39;98860.70;214413;1281;22913;-74
2022/11/07 19:38:37;;;;;;;18.60;9.70;;;;;;;6.58;93.31;98867.29;214327;1309;22478;-73
2022/11/07 19:43:41;;;;;;;21.70;12.00;;;;;;;6.58;93.46;98873.79;214494;1288;22477;-72
2022/11/07 19:48:43;;;;;;;21.40;10.40;;;;;;;6.59;93.50;98871.98;214647;1309;23029;-73
2022/11/07 19:53:45;;;;;;;19.10;10.20;;;;;;;6.59;93.37;98874.11;214508;1281;23774;-72
2022/11/07 19:58:47;;;;;;;18.00;10.20;;;;;;;6.56;93.37;98878.46;214465;1309;22545;-72
2022/11/07 20:03:51;;;;;;;19.00;10.70;;;;;;;6.53;93.59;98886.75;214405;1309;25374;-73
2022/11/07 20:08:53;;;;;;;22.40;10.20;;;;;;;6.49;93.73;98883.38;214436;1295;24352;-73
2022/11/07 20:13:55;;;;;;;18.50;9.40;;;;;;;6.46;93.77;98884.02;214440;1288;22469;-72
2022/11/07 20:19:04;;;;;;;17.50;8.50;;;;;;;6.46;94.15;98890.29;214424;1310;24421;-74
2022/11/07 20:24:09;;;;;;;15.70;8.70;;;;;;;6.48;94.28;98892.85;214248;1310;22478;-72
2022/11/07 20:29:12;;;;;;;14.30;8.30;;;;;;;6.47;94.30;98897.00;214360;1309;22467;-73
2022/11/07 20:34:17;;;;;;;17.50;9.20;;;;;;;6.41;93.77;98903.41;214314;1285;22504;-72
2022/11/07 20:39:20;;;;;;;16.20;9.10;;;;;;;6.33;93.65;98900.75;214168;1293;23776;-74
2022/11/07 20:44:21;;;;;;;23.70;11.20;;;;;;;6.26;94.05;98900.38;214505;1301;22660;-73
2022/11/07 20:49:23;;;;;;;17.60;9.10;;;;;;;6.20;94.14;98897.91;214449;1287;24263;-73
2022/11/07 20:54:28;;;;;;;21.60;11.80;;;;;;;6.11;93.65;98901.73;214444;1288;22468;-73
2022/11/07 20:59:31;;;;;;;34.60;15.70;;;;;;;6.03;94.14;98905.40;214436;1309;24605;-74
2022/11/07 21:04:33;;;;;;;29.20;15.10;;;;;;;5.97;94.27;98904.70;214367;1287;22519;-73
2022/11/07 21:09:54;;;;;;;37.00;18.70;;;;;;;5.93;94.50;98907.95;214488;1290;22486;-73
2022/11/07 21:14:56;;;;;;;26.40;14.50;;;;;;;5.90;94.76;98914.20;214730;1295;22459;-73
2022/11/07 21:19:58;;;;;;;29.80;15.20;;;;;;;5.92;94.94;98912.56;214528;1295;22530;-73
2022/11/07 21:25:02;;;;;;;26.50;14.00;;;;;;;5.95;95.33;98918.92;214571;1295;22485;-73
2022/11/07 21:30:05;;;;;;;26.70;14.30;;;;;;;5.96;95.15;98915.49;214573;1308;24305;-71
2022/11/07 21:35:08;;;;;;;28.60;14.50;;;;;;;5.97;95.20;98913.98;214566;1309;25240;-72
2022/11/07 21:40:10;;;;;;;27.60;14.50;;;;;;;5.99;95.37;98917.38;214387;1295;24295;-73
2022/11/07 21:45:12;;;;;;;25.70;12.90;;;;;;;6.04;96.08;98913.80;214266;1287;22575;-73
2022/11/07 21:50:16;;;;;;;21.30;12.70;;;;;;;6.08;95.97;98913.95;214410;1293;23108;-72
2022/11/07 21:55:38;;;;;;;22.20;12.00;;;;;;;6.10;96.06;98916.45;214329;1286;24346;-72
2022/11/07 22:00:40;;;;;;;23.40;11.50;;;;;;;6.13;96.31;98911.90;214511;1291;24540;-72
2022/11/07 22:05:42;;;;;;;22.10;11.90;;;;;;;6.15;96.31;98909.84;214254;1302;22477;-73
2022/11/07 22:10:44;;;;;;;19.10;11.50;;;;;;;6.14;96.08;98902.13;214515;1285;25670;-73
2022/11/07 22:15:48;;;;;;;25.10;12.10;;;;;;;6.10;96.01;98903.48;214588;1298;22472;-73
2022/11/07 22:20:54;;;;;;;21.10;12.70;;;;;;;6.07;96.08;98899.98;214568;1310;22808;-74
2022/11/07 22:26:09;;;;;;;23.50;13.00;;;;;;;6.05;96.11;98901.84;214416;1294;22469;-73
2022/11/07 22:31:14;;;;;;;27.30;14.10;;;;;;;6.01;96.08;98903.14;214279;1289;22493;-73
2022/11/07 22:36:17;;;;;;;29.10;15.40;;;;;;;5.94;95.77;98902.70;214242;1295;25432;-73
2022/11/07 22:41:23;;;;;;;29.30;14.30;;;;;;;5.88;95.95;98900.52;214226;1285;22475;-73
2022/11/07 22:46:29;;;;;;;28.30;14.80;;;;;;;5.81;95.98;98902.23;214258;1309;22487;-73
2022/11/07 22:51:33;;;;;;;29.90;15.20;;;;;;;5.76;96.10;98904.94;213976;1304;22485;-73
2022/11/07 22:56:36;;;;;;;38.20;18.60;;;;;;;5.69;96.17;98903.34;214174;1309;23792;-73
2022/11/07 23:01:40;;;;;;;32.80;15.60;;;;;;;5.63;96.20;98901.48;213981;1309;22465;-73
2022/11/07 23:06:43;;;;;;;22.50;13.30;;;;;;;5.58;96.22;98905.73;214059;1310;25145;-74
2022/11/07 23:11:44;;;;;;;26.20;14.80;;;;;;;5.54;96.61;98902.35;214143;1309;25265;-73
2022/11/07 23:16:51;;;;;;;31.80;17.00;;;;;;;5.50;96.90;98900.25;214057;1309;23294;-73
2022/11/07 23:21:55;;;;;;;25.20;15.00;;;;;;;5.48;96.96;98903.21;214235;1304;22485;-73
2022/11/07 23:26:57;;;;;;;27.60;15.90;;;;;;;5.46;96.82;98899.35;214385;1309;22513;-73
2022/11/07 23:31:59;;;;;;;26.90;15.50;;;;;;;5.43;97.36;98897.20;214018;1309;22504;-73
2022/11/07 23:37:02;;;;;;;28.70;15.00;;;;;;;5.40;97.46;98902.55;214294;1309;23272;-73
2022/11/07 23:42:03;;;;;;;31.10;16.60;;;;;;;5.39;97.77;98901.42;214031;1309;23052;-73
2022/11/07 23:52:28;;;;;;;31.50;17.30;;;;;;;5.36;98.12;98899.36;214241;1310;22473;-73
